createdAt,value
2019-02-28T00:01:43.162Z,24.50
2019-02-28T00:04:13.465Z,25.20
2019-02-28T00:06:44.324Z,24.90
2019-02-28T00:09:14.530Z,28.27
2019-02-28T00:11:44.290Z,25.23
2019-02-28T00:14:13.742Z,23.87
2019-02-28T00:16:43.233Z,25.23
2019-02-28T00:19:12.752Z,28.20
2019-02-28T00:21:42.222Z,22.87
2019-02-28T00:24:11.762Z,26.17
2019-02-28T00:26:46.482Z,23.43
2019-02-28T00:29:12.723Z,28.90
2019-02-28T00:31:42.199Z,21.83
2019-02-28T00:34:11.649Z,24.00
2019-02-28T00:36:41.139Z,19.93
2019-02-28T00:39:10.912Z,26.53
2019-02-28T00:41:44.431Z,21.80
2019-02-28T00:44:11.602Z,21.57
2019-02-28T00:46:45.176Z,23.80
2019-02-28T00:49:12.275Z,28.27
2019-02-28T00:51:41.746Z,21.30
2019-02-28T00:54:11.205Z,23.13
2019-02-28T00:56:40.695Z,20.50
2019-02-28T00:59:10.156Z,21.07
2019-02-28T01:01:39.686Z,27.27
2019-02-28T01:04:09.141Z,22.43
2019-02-28T01:06:41.782Z,19.30
2019-02-28T01:09:10.332Z,19.27
2019-02-28T01:11:39.857Z,21.10
2019-02-28T01:14:09.298Z,19.30
2019-02-28T01:16:41.313Z,16.00
2019-02-28T01:19:10.334Z,19.17
2019-02-28T01:21:40.081Z,16.90
2019-02-28T01:24:09.895Z,15.93
2019-02-28T01:26:39.362Z,16.17
2019-02-28T01:29:08.803Z,14.93
2019-02-28T01:31:38.272Z,15.93
2019-02-28T01:34:07.894Z,16.83
2019-02-28T01:36:37.355Z,12.97
2019-02-28T01:39:07.253Z,15.00
2019-02-28T01:41:36.714Z,12.33
2019-02-28T01:44:06.161Z,13.20
2019-02-28T01:46:36.183Z,14.67
2019-02-28T01:49:05.625Z,14.43
2019-02-28T01:51:36.708Z,11.10
2019-02-28T01:54:06.529Z,16.83
2019-02-28T01:56:36.946Z,13.23
2019-02-28T01:59:07.232Z,17.37
2019-02-28T02:01:36.677Z,14.73
2019-02-28T02:04:07.092Z,14.90
2019-02-28T02:06:36.915Z,14.73
2019-02-28T02:09:10.714Z,13.63
2019-02-28T02:11:38.088Z,14.37
2019-02-28T02:14:10.972Z,13.67
2019-02-28T02:16:38.937Z,11.70
2019-02-28T02:19:08.569Z,12.80
2019-02-28T02:21:38.561Z,13.97
2019-02-28T02:24:08.228Z,13.07
2019-02-28T02:26:37.815Z,12.30
2019-02-28T02:29:07.317Z,13.47
2019-02-28T02:31:36.783Z,14.67
2019-02-28T02:34:06.298Z,12.83
2019-02-28T02:36:35.738Z,12.60
2019-02-28T02:39:08.394Z,13.13
2019-02-28T02:41:37.761Z,12.53
2019-02-28T02:44:07.502Z,13.00
2019-02-28T02:46:36.934Z,11.60
2019-02-28T02:49:06.418Z,10.67
2019-02-28T02:51:35.855Z,15.40
2019-02-28T02:54:05.625Z,13.60
2019-02-28T02:56:40.695Z,17.50
2019-02-28T02:59:06.222Z,12.87
2019-02-28T03:01:35.693Z,12.40
2019-02-28T03:04:05.154Z,11.50
2019-02-28T03:06:34.592Z,13.83
2019-02-28T03:09:10.122Z,13.50
2019-02-28T03:11:37.394Z,12.57
2019-02-28T03:14:06.851Z,13.97
2019-02-28T03:16:36.553Z,14.73
2019-02-28T03:19:06.016Z,13.10
2019-02-28T03:21:35.479Z,11.50
2019-02-28T03:24:04.954Z,14.73
2019-02-28T03:26:41.359Z,15.77
2019-02-28T03:29:08.061Z,12.63
2019-02-28T03:31:37.536Z,13.93
2019-02-28T03:34:13.264Z,14.20
2019-02-28T03:36:38.134Z,12.83
2019-02-28T03:39:07.865Z,15.80
2019-02-28T03:41:37.612Z,17.90
2019-02-28T03:44:07.075Z,15.63
2019-02-28T03:46:36.527Z,16.17
2019-02-28T03:49:11.065Z,14.27
2019-02-28T03:51:37.186Z,13.57
2019-02-28T03:54:06.647Z,14.53
2019-02-28T03:56:36.105Z,15.83
2019-02-28T03:59:05.557Z,16.90
2019-02-28T04:01:35.072Z,13.87
2019-02-28T04:04:10.906Z,16.10
2019-02-28T04:06:39.541Z,13.70
2019-02-28T04:09:08.456Z,15.83
2019-02-28T04:11:38.034Z,16.90
2019-02-28T04:14:07.554Z,13.63
2019-02-28T04:16:36.965Z,12.97
2019-02-28T04:19:06.416Z,12.90
2019-02-28T04:21:36.152Z,16.60
2019-02-28T04:24:12.731Z,17.73
2019-02-28T04:26:36.828Z,15.57
2019-02-28T04:29:06.379Z,18.53
2019-02-28T04:31:39.171Z,16.30
2019-02-28T04:34:13.010Z,19.50
2019-02-28T04:36:40.275Z,17.43
2019-02-28T04:39:09.783Z,18.20
2019-02-28T04:41:39.610Z,14.20
2019-02-28T04:44:09.028Z,17.50
2019-02-28T04:46:38.485Z,17.93
2019-02-28T04:49:08.101Z,16.80
2019-02-28T04:51:40.124Z,17.10
2019-02-28T04:54:08.690Z,16.80
2019-02-28T04:56:38.168Z,16.97
2019-02-28T04:59:07.648Z,17.73
2019-02-28T05:01:37.102Z,16.43
2019-02-28T05:04:06.563Z,16.73
2019-02-28T05:06:36.016Z,18.47
2019-02-28T05:09:06.868Z,16.73
2019-02-28T05:11:39.636Z,16.70
2019-02-28T05:14:09.174Z,19.00
2019-02-28T05:16:38.611Z,20.10
2019-02-28T05:19:08.077Z,19.90
2019-02-28T05:21:37.527Z,19.77
2019-02-28T05:24:07.682Z,19.30
2019-02-28T05:26:38.007Z,18.53
2019-02-28T05:29:07.480Z,20.33
2019-02-28T05:31:36.943Z,20.17
2019-02-28T05:34:06.403Z,18.80
2019-02-28T05:36:37.941Z,19.77
2019-02-28T05:39:09.146Z,18.13
2019-02-28T05:41:38.570Z,20.67
2019-02-28T05:44:08.059Z,22.70
2019-02-28T05:46:37.511Z,20.10
2019-02-28T05:49:08.727Z,20.33
2019-02-28T05:51:38.457Z,17.53
2019-02-28T05:54:07.913Z,20.47
2019-02-28T05:56:37.367Z,19.93
2019-02-28T05:59:06.829Z,17.93
2019-02-28T06:01:39.529Z,21.00
2019-02-28T06:04:09.044Z,17.43
2019-02-28T06:06:38.534Z,21.37
2019-02-28T06:09:10.340Z,19.43
2019-02-28T06:11:39.190Z,25.43
2019-02-28T06:14:08.662Z,18.33
2019-02-28T06:16:38.115Z,24.70
2019-02-28T06:19:09.388Z,21.43
2019-02-28T06:21:38.857Z,19.23
2019-02-28T06:24:08.302Z,18.53
2019-02-28T06:26:38.076Z,16.53
2019-02-28T06:29:07.561Z,23.23
2019-02-28T06:31:37.194Z,17.80
2019-02-28T06:34:08.536Z,19.70
2019-02-28T06:36:37.817Z,24.17
2019-02-28T06:39:07.324Z,18.47
2019-02-28T06:41:39.909Z,23.43
2019-02-28T06:44:08.305Z,28.63
2019-02-28T06:46:39.797Z,21.67
2019-02-28T06:49:08.922Z,18.37
2019-02-28T06:51:38.371Z,25.33
2019-02-28T06:54:08.751Z,17.03
2019-02-28T06:56:38.364Z,18.20
2019-02-28T06:59:10.429Z,19.30
2019-02-28T07:01:39.564Z,25.67
2019-02-28T07:04:11.537Z,21.20
2019-02-28T07:06:40.744Z,24.03
2019-02-28T07:09:10.210Z,26.83
2019-02-28T07:11:39.668Z,23.77
2019-02-28T07:14:12.833Z,22.17
2019-02-28T07:16:40.293Z,22.33
2019-02-28T07:19:09.781Z,27.10
2019-02-28T07:21:42.863Z,24.43
2019-02-28T07:24:10.472Z,25.73
2019-02-28T07:26:40.240Z,31.97
2019-02-28T07:29:11.930Z,30.47
2019-02-28T07:31:40.886Z,28.60
2019-02-28T07:34:10.350Z,31.13
2019-02-28T07:36:41.506Z,30.67
2019-02-28T07:39:11.051Z,34.00
2019-02-28T07:41:41.434Z,33.80
2019-02-28T07:44:11.135Z,36.07
2019-02-28T07:46:42.580Z,34.13
2019-02-28T07:49:11.820Z,35.33
2019-02-28T07:51:41.265Z,34.27
2019-02-28T07:54:12.694Z,36.80
2019-02-28T07:56:43.083Z,36.37
2019-02-28T07:59:13.564Z,38.53
2019-02-28T08:01:43.034Z,40.33
2019-02-28T08:04:12.479Z,42.90
2019-02-28T08:06:42.271Z,39.03
2019-02-28T08:09:25.954Z,43.53
2019-02-28T08:11:56.721Z,41.33
2019-02-28T08:14:26.298Z,41.63
2019-02-28T08:16:55.771Z,42.60
2019-02-28T08:19:27.017Z,41.50
2019-02-28T08:21:56.741Z,41.23
2019-02-28T08:24:26.665Z,45.73
2019-02-28T08:26:56.164Z,43.73
2019-02-28T08:29:25.640Z,42.67
2019-02-28T08:31:57.433Z,44.57
2019-02-28T08:34:26.655Z,44.83
2019-02-28T08:36:56.158Z,44.63
2019-02-28T08:39:25.869Z,42.53
2019-02-28T08:42:03.004Z,42.33
2019-02-28T08:44:26.586Z,43.57
2019-02-28T08:46:56.053Z,42.63
2019-02-28T08:49:25.564Z,41.77
2019-02-28T08:51:55.041Z,46.40
2019-02-28T08:54:27.263Z,46.53
2019-02-28T08:56:55.956Z,50.40
2019-02-28T08:59:25.481Z,53.00
2019-02-28T09:01:55.019Z,48.63
2019-02-28T09:04:24.496Z,47.33
2019-02-28T09:06:54.015Z,49.57
2019-02-28T09:09:23.491Z,50.23
2019-02-28T09:11:57.883Z,53.43
2019-02-28T09:14:24.119Z,49.03
2019-02-28T09:16:53.674Z,47.53
2019-02-28T09:19:23.191Z,49.00
2019-02-28T09:21:53.754Z,52.70
2019-02-28T09:24:23.321Z,52.97
2019-02-28T09:26:53.133Z,50.53
2019-02-28T09:29:22.591Z,53.10
2019-02-28T09:31:52.063Z,54.00
2019-02-28T09:34:21.532Z,55.63
2019-02-28T09:36:55.242Z,47.00
2019-02-28T09:39:22.765Z,52.37
2019-02-28T09:41:52.579Z,53.17
2019-02-28T09:44:22.039Z,54.30
2019-02-28T09:46:51.698Z,50.37
2019-02-28T09:49:21.246Z,52.57
2019-02-28T09:51:51.022Z,50.70
2019-02-28T09:54:21.425Z,49.47
2019-02-28T09:56:51.687Z,47.63
2019-02-28T09:59:21.151Z,48.77
2019-02-28T10:01:50.617Z,51.57
2019-02-28T10:04:20.072Z,49.80
2019-02-28T10:06:51.571Z,46.00
2019-02-28T10:09:21.059Z,48.20
2019-02-28T10:11:50.542Z,48.37
2019-02-28T10:14:19.992Z,50.23
2019-02-28T10:16:52.561Z,47.50
2019-02-28T10:19:20.672Z,52.03
2019-02-28T10:21:52.159Z,45.87
2019-02-28T10:24:21.291Z,52.53
2019-02-28T10:26:51.504Z,55.60
2019-02-28T10:29:21.714Z,47.60
2019-02-28T10:31:51.185Z,52.15
2019-02-28T10:34:23.416Z,52.33
2019-02-28T10:36:51.835Z,54.70
2019-02-28T10:39:21.302Z,54.87
2019-02-28T10:41:50.767Z,56.87
2019-02-28T10:44:20.227Z,54.67
2019-02-28T10:46:50.349Z,54.63
2019-02-28T10:49:21.140Z,57.77
2019-02-28T10:51:52.377Z,55.47
2019-02-28T10:54:21.854Z,58.17
2019-02-28T10:56:51.323Z,58.33
2019-02-28T10:59:21.352Z,59.30
2019-02-28T11:01:52.014Z,55.63
2019-02-28T11:04:21.467Z,54.20
2019-02-28T11:06:50.957Z,55.20
2019-02-28T11:09:21.429Z,57.73
2019-02-28T11:11:51.862Z,51.90
2019-02-28T11:14:21.321Z,56.80
2019-02-28T11:16:50.779Z,54.00
2019-02-28T11:19:20.244Z,55.70
2019-02-28T11:21:49.738Z,52.17
2019-02-28T11:24:20.580Z,54.70
2019-02-28T11:26:50.398Z,58.37
2019-02-28T11:29:19.847Z,55.70
2019-02-28T11:31:50.563Z,55.17
2019-02-28T11:34:20.491Z,56.03
2019-02-28T11:36:50.135Z,54.67
2019-02-28T11:39:20.180Z,49.07
2019-02-28T11:41:52.646Z,55.70
2019-02-28T11:44:21.084Z,58.23
2019-02-28T11:46:50.782Z,53.00
2019-02-28T11:49:20.243Z,54.83
2019-02-28T11:51:52.996Z,56.50
2019-02-28T11:54:20.899Z,54.50
2019-02-28T11:56:50.370Z,53.27
2019-02-28T11:59:19.829Z,54.20
2019-02-28T12:01:49.592Z,50.27
2019-02-28T12:04:19.041Z,47.50
2019-02-28T12:06:50.292Z,52.83
2019-02-28T12:09:20.164Z,54.67
2019-02-28T12:11:49.632Z,56.07
2019-02-28T12:14:19.379Z,53.23
2019-02-28T12:16:52.726Z,58.33
2019-02-28T12:19:20.026Z,52.27
2019-02-28T12:21:49.567Z,53.93
2019-02-28T12:24:19.018Z,57.10
2019-02-28T12:26:49.398Z,56.50
2019-02-28T12:29:19.645Z,57.90
2019-02-28T12:31:49.115Z,53.73
2019-02-28T12:34:18.851Z,55.03
2019-02-28T12:36:49.407Z,59.13
2019-02-28T12:39:19.455Z,60.03
2019-02-28T12:41:48.925Z,58.20
2019-02-28T12:44:18.408Z,62.23
2019-02-28T12:46:47.880Z,61.23
2019-02-28T12:49:21.802Z,58.10
2019-02-28T12:51:49.589Z,60.43
2019-02-28T12:54:19.517Z,59.57
2019-02-28T12:56:48.998Z,60.43
2019-02-28T12:59:18.704Z,56.10
2019-02-28T13:01:48.377Z,60.60
2019-02-28T13:04:17.833Z,59.33
2019-02-28T13:06:47.293Z,65.43
2019-02-28T13:09:17.765Z,60.60
2019-02-28T13:11:47.262Z,60.57
2019-02-28T13:14:16.726Z,63.67
2019-02-28T13:16:46.252Z,66.37
2019-02-28T13:19:16.348Z,66.20
2019-02-28T13:21:47.873Z,62.00
2019-02-28T13:24:17.441Z,67.33
2019-02-28T13:26:46.901Z,61.77
2019-02-28T13:29:16.384Z,61.07
2019-02-28T13:31:45.862Z,64.80
2019-02-28T13:34:15.342Z,63.33
2019-02-28T13:36:44.807Z,64.63
2019-02-28T13:39:14.282Z,64.03
2019-02-28T13:41:43.735Z,63.70
2019-02-28T13:44:13.213Z,62.63
2019-02-28T13:46:42.987Z,64.77
2019-02-28T13:49:15.399Z,64.40
2019-02-28T13:51:43.645Z,66.77
2019-02-28T13:54:13.113Z,63.93
2019-02-28T13:56:42.568Z,64.10
2019-02-28T13:59:13.105Z,65.33
2019-02-28T14:01:42.564Z,73.20
2019-02-28T14:04:12.036Z,65.20
2019-02-28T14:06:41.529Z,67.57
2019-02-28T14:09:11.006Z,68.20
2019-02-28T14:11:41.890Z,58.60
2019-02-28T14:14:11.746Z,63.97
2019-02-28T14:16:41.213Z,65.30
2019-02-28T14:19:10.676Z,64.17
2019-02-28T14:21:40.206Z,63.30
2019-02-28T14:24:10.077Z,64.40
2019-02-28T14:26:42.811Z,65.20
2019-02-28T14:29:11.710Z,66.07
2019-02-28T14:31:41.203Z,63.97
2019-02-28T14:34:10.968Z,65.07
2019-02-28T14:36:41.811Z,62.40
2019-02-28T14:39:13.540Z,64.07
2019-02-28T14:41:43.115Z,62.23
2019-02-28T14:44:12.590Z,68.87
2019-02-28T14:46:42.046Z,66.93
2019-02-28T14:49:14.612Z,68.37
2019-02-28T14:51:44.356Z,69.57
2019-02-28T14:54:13.820Z,73.80
2019-02-28T14:56:43.266Z,67.53
2019-02-28T14:59:12.729Z,68.57
2019-02-28T15:01:42.185Z,70.60
2019-02-28T15:04:12.000Z,62.77
2019-02-28T15:06:41.732Z,68.03
2019-02-28T15:09:16.200Z,66.87
2019-02-28T15:11:46.864Z,70.73
2019-02-28T15:14:16.917Z,69.50
2019-02-28T15:16:46.358Z,75.60
2019-02-28T15:19:16.093Z,72.07
2019-02-28T15:21:46.435Z,70.60
2019-02-28T15:24:15.928Z,73.73
2019-02-28T15:26:45.389Z,79.80
2019-02-28T15:29:14.847Z,71.27
2019-02-28T15:31:44.336Z,70.53
2019-02-28T15:34:13.795Z,76.60
2019-02-28T15:36:43.282Z,77.83
2019-02-28T15:39:13.171Z,73.53
2019-02-28T15:41:42.635Z,75.27
2019-02-28T15:44:12.116Z,81.80
2019-02-28T15:46:43.874Z,81.83
2019-02-28T15:49:12.789Z,74.80
2019-02-28T15:51:42.237Z,77.10
2019-02-28T15:54:11.767Z,79.20
2019-02-28T15:56:41.260Z,75.77
2019-02-28T15:59:11.644Z,80.57
2019-02-28T16:01:41.900Z,86.57
2019-02-28T16:04:11.408Z,88.77
2019-02-28T16:06:40.939Z,87.13
2019-02-28T16:09:12.212Z,80.63
2019-02-28T16:11:41.969Z,83.37
2019-02-28T16:14:14.561Z,82.77
2019-02-28T16:16:42.753Z,82.20
2019-02-28T16:19:12.385Z,84.30
2019-02-28T16:21:44.468Z,85.30
2019-02-28T16:24:14.314Z,78.93
2019-02-28T16:26:43.785Z,87.10
2019-02-28T16:29:20.434Z,79.77
2019-02-28T16:31:47.032Z,83.47
2019-02-28T16:34:16.510Z,81.20
2019-02-28T16:36:46.277Z,84.77
2019-02-28T16:39:16.921Z,80.27
2019-02-28T16:41:46.916Z,80.23
2019-02-28T16:44:16.401Z,75.97
2019-02-28T16:46:46.506Z,85.67
2019-02-28T16:49:17.360Z,82.73
2019-02-28T16:51:47.182Z,88.90
2019-02-28T16:54:19.313Z,83.10
2019-02-28T16:56:48.062Z,87.83
2019-02-28T16:59:17.553Z,86.47
2019-02-28T17:01:47.000Z,91.33
2019-02-28T17:04:18.006Z,92.10
2019-02-28T17:06:47.503Z,91.93
2019-02-28T17:09:19.557Z,88.40
2019-02-28T17:11:51.411Z,86.53
2019-02-28T17:14:21.809Z,90.17
2019-02-28T17:16:58.859Z,87.43
2019-02-28T17:19:31.452Z,91.10
2019-02-28T17:22:00.082Z,89.07
2019-02-28T17:24:29.630Z,95.47
2019-02-28T17:27:06.267Z,102.03
2019-02-28T17:29:44.253Z,94.23
2019-02-28T17:32:15.519Z,92.57
2019-02-28T17:34:45.611Z,92.47
2019-02-28T17:37:15.059Z,91.17
2019-02-28T17:39:47.412Z,90.97
2019-02-28T17:42:15.940Z,83.37
2019-02-28T17:44:51.484Z,89.40
2019-02-28T17:47:33.051Z,93.13
2019-02-28T17:50:42.821Z,92.90
2019-02-28T17:53:42.023Z,91.97
2019-02-28T17:56:37.545Z,90.50
2019-02-28T17:59:27.122Z,96.57
2019-02-28T18:02:31.311Z,90.83
2019-02-28T18:05:15.990Z,93.00
2019-02-28T18:08:22.000Z,89.17
2019-02-28T18:11:13.803Z,87.07
2019-02-28T18:13:58.230Z,79.97
2019-02-28T18:16:39.674Z,82.90
2019-02-28T18:19:21.657Z,84.90
2019-02-28T18:22:12.923Z,82.37
2019-02-28T18:25:04.052Z,83.83
2019-02-28T18:27:43.717Z,75.27
2019-02-28T18:30:42.654Z,72.10
2019-02-28T18:33:11.204Z,80.10
2019-02-28T18:35:40.761Z,74.20
2019-02-28T18:38:10.289Z,74.50
2019-02-28T18:40:39.750Z,75.37
2019-02-28T18:43:09.200Z,72.93
2019-02-28T18:45:39.007Z,75.00
2019-02-28T18:48:08.617Z,74.83
2019-02-28T18:50:38.099Z,68.40
2019-02-28T18:53:07.568Z,71.60
2019-02-28T18:55:37.071Z,77.17
2019-02-28T18:58:06.595Z,73.03
2019-02-28T19:00:36.426Z,72.13
2019-02-28T19:03:05.956Z,72.80
2019-02-28T19:05:35.430Z,75.77
2019-02-28T19:08:04.969Z,70.00
2019-02-28T19:10:34.444Z,75.60
2019-02-28T19:13:03.889Z,76.33
2019-02-28T19:15:33.375Z,77.43
2019-02-28T19:18:02.836Z,78.57
2019-02-28T19:20:32.297Z,79.57
2019-02-28T19:23:02.101Z,86.13
2019-02-28T19:25:31.545Z,78.97
2019-02-28T19:28:02.102Z,90.17
2019-02-28T19:30:31.683Z,93.07
2019-02-28T19:33:01.742Z,90.30
2019-02-28T19:35:31.203Z,87.43
2019-02-28T19:38:00.650Z,84.60
2019-02-28T19:40:30.107Z,81.00
2019-02-28T19:42:59.867Z,78.30
2019-02-28T19:45:38.233Z,84.90
2019-02-28T19:48:07.666Z,82.03
2019-02-28T19:50:37.396Z,85.17
2019-02-28T19:53:06.853Z,80.07
2019-02-28T19:55:36.321Z,79.53
2019-02-28T19:58:05.779Z,79.17
2019-02-28T20:00:37.169Z,84.87
2019-02-28T20:03:07.001Z,78.77
2019-02-28T20:05:36.562Z,88.90
2019-02-28T20:08:06.037Z,90.60
2019-02-28T20:10:35.492Z,89.67
2019-02-28T20:13:06.130Z,84.37
2019-02-28T20:15:37.209Z,79.87
2019-02-28T20:18:06.701Z,76.97
2019-02-28T20:20:36.141Z,87.63
2019-02-28T20:23:05.779Z,87.73
2019-02-28T20:25:35.232Z,82.73
2019-02-28T20:28:04.969Z,84.10
2019-02-28T20:30:34.410Z,85.23
2019-02-28T20:33:03.881Z,83.03
2019-02-28T20:35:33.362Z,88.73
2019-02-28T20:38:02.845Z,81.00
2019-02-28T20:40:35.127Z,78.10
2019-02-28T20:43:04.834Z,79.10
2019-02-28T20:45:34.337Z,85.33
2019-02-28T20:48:04.343Z,85.33
2019-02-28T20:50:39.572Z,87.10
2019-02-28T20:53:13.834Z,75.73
2019-02-28T20:55:43.473Z,74.87
2019-02-28T20:58:12.947Z,84.87
2019-02-28T21:00:42.504Z,81.97
2019-02-28T21:03:11.963Z,76.67
2019-02-28T21:05:41.433Z,81.83
2019-02-28T21:08:11.236Z,80.27
2019-02-28T21:10:40.772Z,80.77
2019-02-28T21:13:10.222Z,81.97
2019-02-28T21:15:39.667Z,80.50
2019-02-28T21:18:09.198Z,80.23
2019-02-28T21:20:38.650Z,83.60
2019-02-28T21:23:08.115Z,79.57
2019-02-28T21:25:37.561Z,87.90
2019-02-28T21:28:07.038Z,87.53
2019-02-28T21:30:36.494Z,82.67
2019-02-28T21:33:05.962Z,85.23
2019-02-28T21:35:35.423Z,79.33
2019-02-28T21:38:05.087Z,82.77
2019-02-28T21:40:34.526Z,88.87
2019-02-28T21:43:03.993Z,89.17
2019-02-28T21:45:33.843Z,83.83
2019-02-28T21:48:03.344Z,88.00
2019-02-28T21:50:32.912Z,88.37
2019-02-28T21:53:02.368Z,89.63
2019-02-28T21:55:31.819Z,91.53
2019-02-28T21:58:01.573Z,90.80
2019-02-28T22:00:32.000Z,96.87
2019-02-28T22:03:01.465Z,96.90
2019-02-28T22:05:31.153Z,92.30
2019-02-28T22:08:00.634Z,98.73
2019-02-28T22:10:30.350Z,96.10
2019-02-28T22:13:00.003Z,93.43
2019-02-28T22:15:29.528Z,97.83
2019-02-28T22:17:58.990Z,89.23
2019-02-28T22:20:28.471Z,99.10
2019-02-28T22:22:57.969Z,106.47
2019-02-28T22:25:27.408Z,89.23
2019-02-28T22:27:56.871Z,95.70
2019-02-28T22:30:43.593Z,95.73
2019-02-28T22:33:20.668Z,95.67
2019-02-28T22:35:51.772Z,103.57
2019-02-28T22:38:21.605Z,99.13
2019-02-28T22:40:51.064Z,108.00
2019-02-28T22:43:20.531Z,97.60
2019-02-28T22:45:50.074Z,107.07
2019-02-28T22:48:19.558Z,110.60
2019-02-28T22:50:49.010Z,116.93
2019-02-28T22:53:18.477Z,109.00
2019-02-28T22:55:47.927Z,103.00
2019-02-28T22:58:17.397Z,108.70
2019-02-28T23:01:12.373Z,108.80
2019-02-28T23:03:43.169Z,102.87
2019-02-28T23:06:12.624Z,114.37
2019-02-28T23:08:42.081Z,107.90
2019-02-28T23:11:11.547Z,115.20
2019-02-28T23:13:41.055Z,115.53
2019-02-28T23:16:10.594Z,105.80
2019-02-28T23:18:40.055Z,112.47
2019-02-28T23:21:09.537Z,115.77
2019-02-28T23:23:39.032Z,111.07
2019-02-28T23:26:12.853Z,106.03
2019-02-28T23:28:48.567Z,121.27
2019-02-28T23:31:39.179Z,110.80
2019-02-28T23:34:17.466Z,120.00
2019-02-28T23:36:46.973Z,112.50
2019-02-28T23:39:16.722Z,114.10
2019-02-28T23:41:46.248Z,118.33
2019-02-28T23:44:16.060Z,111.33
2019-02-28T23:46:45.501Z,123.37
2019-02-28T23:49:14.974Z,118.30
2019-02-28T23:51:44.449Z,110.57
2019-02-28T23:54:13.917Z,121.70
2019-02-28T23:56:43.453Z,115.53
2019-02-28T23:59:12.931Z,122.17
